Portada
METAR-TAF:

METAR-TAF

Aeroports :

Curaçao, Antilles Neerlandeses

latitud: 12-12N, longitud: 068-58W, altitud: 9 m

Observació

L'informe es va fer fa 1 hora i 0 minuts, a les 09:15 UTC
Vent 9 kt del Est
Temperatura 26°C
Humitat 89%
Pressió 1008 hPa
Visibilitat 10 km o més
xàfecs de pluja

METAR: TNCC 220915Z AUTO 08009KT 9999 -SHRA NCD 26/24 Q1008

Hora: 06:15 (10:15 UTC)

Pronòstic

L'informe es va fer fa 6 hores i 15 minuts, a les 04:00 UTC
Pronòstic vàlid del 22 a les 06 UTC al 23 a les 06 UTC
Vent 11 kt del Est/Nord-Est
Visibilitat 10 km o més
Núvols disperses a una alçada de 2000 ft
Temporalment
l' 22 a les 06 UTC al 22 a les 18 UTC
Visibilitat: 7000 m
Cel ennuvolat a una alçada de 1500 ft
xàfecs de pluja

TAF: TNCC 220400Z 2206/2306 07011KT 9999 SCT020 TEMPO 2206/2218 7000 SHRA BKN015

Observacions i pronòstics meteorològics de més de 4000 aeroports (METAR i TAF).

Les estacions disponibles són els punts grocs i vermells al mapa.

Posi el ratolí al punt desitjat per veure el nom de l'estació.

Feu clic per veure les observacions i els pronòstics meteorològics.

Per canviar el mapa: feu clic els botons verds amb una creu de color negre per apropar; al botó verd amb un guió per allunyar la imatge; o en les fletxes verdes per a mapes adjacents.


METAR-TAF: